MiSS Claire — WDD2762 — position and weather

sailwx.info

Track history (hours):
 
Tides and Currents Weather Stations Pressure Air Temp Water Temp Dewpoint Dewpoint Depression Visibility Wind Speed Wind Dir Waves Ship Positions

MiSS Claire

Owner: Captain Elliott's Party Boats, Inc., Freeport, TX. More information available from US FCC via Universal Licensing System and Coast Guard Vessel Documentation Center.

Last reported at 2018-May-12 09:44 UTC. Time now 2018-Jun-22 00:02 UTC.
Position N 28°32' W 092°30'.
Warning: this ship's position is 40 days out of date.

Length 52 m; draft 3.5 m.

Type: Passenger vessel. MMSI: 367119570.

Date/timePositionNaut miles runAvg speedWind from/ knotsBaromVisibWave heightAir tempDewpointWater temp
2018-May-12 09:44N 28°32' W 092°30'2617.5
2018-May-12 08:13N 28°29' W 093°00'1017.3
2018-May-12 07:38N 28°27' W 093°12'417.1
2018-May-12 07:24N 28°26' W 093°16'  
2018-May-08 09:05N 27°51' W 097°04'0 0.0
2018-May-08 07:43N 27°51' W 097°04'0 0.0
2018-May-08 06:27N 27°51' W 097°04'5 9.0
2018-May-08 05:54N 27°50' W 096°58'817.5
2018-May-08 05:26N 27°52' W 096°49'2918.5
2018-May-08 03:50N 27°56' W 096°16'618.8
2018-May-08 03:30N 27°58' W 096°09'4918.8
2018-May-08 00:55N 28°06' W 095°15'20917.8
2018-May-07 13:11N 28°42' W 091°21'  
Track history (hours):
 
Tides and Currents Weather Stations Pressure Air Temp Water Temp Dewpoint Dewpoint Depression Visibility Wind Speed Wind Dir Waves Ship Positions

MiSS Claire

Owner: Captain Elliott's Party Boats, Inc., Freeport, TX. More information available from US FCC via Universal Licensing System and Coast Guard Vessel Documentation Center.

Last reported at 2018-May-12 09:44 UTC. Time now 2018-Jun-22 00:02 UTC.
Position N 28°32' W 092°30'.
Warning: this ship's position is 40 days out of date.

Length 52 m; draft 3.5 m.

Type: Passenger vessel. MMSI: 367119570.

Date/timePositionNaut miles runAvg speedWind from/ knotsBaromVisibWave heightAir tempDewpointWater temp
2018-May-12 09:44N 28°32' W 092°30'2617.5
2018-May-12 08:13N 28°29' W 093°00'1017.3
2018-May-12 07:38N 28°27' W 093°12'417.1
2018-May-12 07:24N 28°26' W 093°16'  
2018-May-08 09:05N 27°51' W 097°04'0 0.0
2018-May-08 07:43N 27°51' W 097°04'0 0.0
2018-May-08 06:27N 27°51' W 097°04'5 9.0
2018-May-08 05:54N 27°50' W 096°58'817.5
2018-May-08 05:26N 27°52' W 096°49'2918.5
2018-May-08 03:50N 27°56' W 096°16'618.8
2018-May-08 03:30N 27°58' W 096°09'4918.8
2018-May-08 00:55N 28°06' W 095°15'20917.8
2018-May-07 13:11N 28°42' W 091°21'  

Dump ship's entire track history